createdAt,value
2022-11-25T00:02:15.159Z,63.82
2022-11-25T00:07:19.869Z,63.59
2022-11-25T00:12:22.968Z,63.18
2022-11-25T00:17:26.338Z,62.96
2022-11-25T00:22:31.025Z,63.38
2022-11-25T00:27:34.047Z,63.28
2022-11-25T00:32:37.359Z,63.31
2022-11-25T00:37:41.919Z,63.69
2022-11-25T00:43:02.647Z,63.63
2022-11-25T00:48:06.497Z,63.74
2022-11-25T00:53:11.388Z,63.74
2022-11-25T00:58:14.561Z,63.60
2022-11-25T01:03:18.070Z,63.27
2022-11-25T01:08:22.844Z,63.12
2022-11-25T01:13:26.159Z,62.85
2022-11-25T01:18:29.991Z,62.78
2022-11-25T01:23:34.778Z,63.08
2022-11-25T01:28:37.812Z,62.52
2022-11-25T01:33:41.472Z,63.24
2022-11-25T01:38:50.386Z,63.55
2022-11-25T01:44:08.341Z,62.97
2022-11-25T01:49:17.162Z,62.73
2022-11-25T01:54:25.581Z,63.02
2022-11-25T01:59:30.945Z,62.74
2022-11-25T02:04:37.232Z,62.64
2022-11-25T02:09:44.972Z,63.23
2022-11-25T02:14:49.854Z,63.38
2022-11-25T02:20:00.738Z,63.38
2022-11-25T02:25:12.653Z,63.60
2022-11-25T02:30:16.238Z,63.45
2022-11-25T02:35:31.996Z,63.29
2022-11-25T02:40:42.141Z,63.24
2022-11-25T02:45:52.034Z,63.42
2022-11-25T02:50:55.395Z,63.28
2022-11-25T02:56:00.812Z,63.77
2022-11-25T03:01:04.210Z,63.43
2022-11-25T03:06:07.967Z,63.71
2022-11-25T03:11:12.873Z,64.02
2022-11-25T03:16:16.255Z,63.71
2022-11-25T03:21:19.544Z,63.62
2022-11-25T03:26:26.218Z,63.66
2022-11-25T03:31:29.654Z,63.28
2022-11-25T03:36:32.970Z,62.70
2022-11-25T03:41:37.511Z,63.37
2022-11-25T03:46:40.827Z,63.61
2022-11-25T03:51:44.193Z,63.33
2022-11-25T03:56:48.787Z,63.36
2022-11-25T04:01:52.024Z,63.30
2022-11-25T04:06:55.209Z,62.62
2022-11-25T04:12:17.090Z,62.63
2022-11-25T04:17:20.468Z,62.73
2022-11-25T04:22:23.648Z,62.99
2022-11-25T04:27:28.323Z,62.81
2022-11-25T04:32:31.379Z,62.50
2022-11-25T04:37:34.561Z,62.89
2022-11-25T04:42:39.852Z,62.63
2022-11-25T04:47:43.754Z,62.75
2022-11-25T04:52:46.950Z,63.35
2022-11-25T04:57:51.706Z,62.86
2022-11-25T05:02:55.252Z,63.03
2022-11-25T05:07:58.548Z,62.27
2022-11-25T05:13:03.211Z,62.94
2022-11-25T05:18:06.161Z,62.67
2022-11-25T05:23:09.505Z,63.08
2022-11-25T05:28:14.178Z,62.72
2022-11-25T05:33:17.141Z,62.57
2022-11-25T05:38:20.348Z,62.94
2022-11-25T05:43:25.103Z,63.30
2022-11-25T05:48:27.977Z,62.65
2022-11-25T05:53:31.775Z,62.99
2022-11-25T05:58:36.307Z,62.88
2022-11-25T06:03:39.961Z,62.41
2022-11-25T06:08:43.297Z,62.30
2022-11-25T06:13:47.915Z,62.23
2022-11-25T06:18:51.033Z,62.47
2022-11-25T06:23:54.269Z,62.44
2022-11-25T06:28:58.961Z,61.91
2022-11-25T06:34:02.037Z,61.76
2022-11-25T06:39:05.328Z,62.12
2022-11-25T06:44:09.861Z,61.97
2022-11-25T06:49:13.065Z,61.27
2022-11-25T06:54:16.384Z,61.69
2022-11-25T06:59:21.392Z,61.61
2022-11-25T07:04:24.759Z,61.34
2022-11-25T07:09:29.363Z,61.56
2022-11-25T07:14:34.291Z,61.84
2022-11-25T07:19:38.324Z,61.55
2022-11-25T07:24:41.542Z,61.41
2022-11-25T07:30:18.785Z,60.86
2022-11-25T07:35:09.737Z,60.51
2022-11-25T07:40:14.333Z,60.01
2022-11-25T07:45:18.982Z,59.82
2022-11-25T07:50:22.499Z,59.40
2022-11-25T07:55:25.789Z,58.65
2022-11-25T08:00:30.497Z,58.45
2022-11-25T08:05:34.796Z,58.66
2022-11-25T08:10:41.284Z,58.75
2022-11-25T08:15:46.195Z,59.08
2022-11-25T08:20:49.443Z,59.24
2022-11-25T08:25:52.629Z,58.90
2022-11-25T08:31:03.400Z,59.06
2022-11-25T08:36:07.697Z,58.93
2022-11-25T08:41:13.421Z,59.17
2022-11-25T08:46:21.444Z,59.28
2022-11-25T08:51:26.901Z,59.36
2022-11-25T08:56:30.464Z,59.21
2022-11-25T09:01:35.106Z,58.67
2022-11-25T09:06:39.980Z,57.72
2022-11-25T09:11:43.623Z,58.61
2022-11-25T09:16:48.382Z,59.19
2022-11-25T09:21:51.451Z,58.83
2022-11-25T09:26:54.985Z,59.67
2022-11-25T09:31:59.816Z,60.00
2022-11-25T09:37:03.208Z,59.82
2022-11-25T09:42:42.231Z,59.50
2022-11-25T09:47:57.812Z,58.91
2022-11-25T09:53:12.750Z,59.02
2022-11-25T09:58:27.093Z,59.43
2022-11-25T10:03:37.973Z,59.40
2022-11-25T10:08:45.014Z,59.37
2022-11-25T10:13:56.199Z,59.51
2022-11-25T10:19:06.663Z,59.22
2022-11-25T10:24:14.716Z,59.39
2022-11-25T10:29:24.801Z,59.19
2022-11-25T10:34:37.125Z,59.63
2022-11-25T10:39:41.271Z,59.87
2022-11-25T10:44:44.441Z,59.53
2022-11-25T10:50:01.339Z,59.30
2022-11-25T10:55:14.649Z,59.50
2022-11-25T11:00:36.467Z,59.57
2022-11-25T11:05:47.100Z,59.63
2022-11-25T11:11:14.393Z,59.79
2022-11-25T11:16:30.870Z,60.46
2022-11-25T11:21:37.842Z,59.89
2022-11-25T11:26:41.148Z,59.52
2022-11-25T11:31:49.808Z,59.38
2022-11-25T11:37:16.482Z,59.37
2022-11-25T11:42:31.127Z,59.66
2022-11-25T11:47:42.405Z,59.85
2022-11-25T11:52:56.204Z,59.83
2022-11-25T11:58:06.829Z,60.04
2022-11-25T12:03:15.896Z,60.27
2022-11-25T12:08:29.330Z,59.66
2022-11-25T12:13:41.754Z,59.89
2022-11-25T12:18:51.351Z,59.74
2022-11-25T12:24:04.344Z,60.21
2022-11-25T12:29:12.561Z,60.30
2022-11-25T12:34:27.741Z,60.03
2022-11-25T12:39:41.068Z,61.10
2022-11-25T12:44:56.373Z,61.05
2022-11-25T12:50:00.625Z,61.15
2022-11-25T12:55:16.509Z,60.84
2022-11-25T13:00:40.985Z,60.80
2022-11-25T13:06:06.057Z,61.20
2022-11-25T13:11:39.949Z,60.79
2022-11-25T13:16:47.253Z,61.43
2022-11-25T13:22:02.636Z,61.62
2022-11-25T13:27:27.610Z,61.36
2022-11-25T13:32:35.725Z,61.46
2022-11-25T13:37:41.985Z,61.77
2022-11-25T13:42:46.866Z,61.76
2022-11-25T13:47:51.612Z,61.55
2022-11-25T13:52:59.831Z,61.86
2022-11-25T13:58:20.905Z,62.09
2022-11-25T14:03:50.552Z,62.09
2022-11-25T14:08:57.399Z,62.62
2022-11-25T14:14:30.676Z,62.20
2022-11-25T14:20:13.618Z,62.68
2022-11-25T14:25:22.551Z,62.04
2022-11-25T14:30:29.951Z,62.60
2022-11-25T14:35:44.873Z,62.56
2022-11-25T14:40:55.465Z,62.31
2022-11-25T14:46:15.731Z,62.54
2022-11-25T14:51:19.586Z,61.98
2022-11-25T14:56:30.646Z,63.10
2022-11-25T15:01:37.129Z,62.57
2022-11-25T15:06:43.008Z,63.00
2022-11-25T15:11:46.668Z,62.73
2022-11-25T15:16:51.768Z,62.88
2022-11-25T15:22:23.219Z,62.36
2022-11-25T15:27:25.926Z,62.36
2022-11-25T15:32:32.918Z,63.09
2022-11-25T15:37:36.205Z,62.72
2022-11-25T15:42:39.418Z,63.01
2022-11-25T15:47:46.295Z,63.07
2022-11-25T15:52:52.824Z,62.21
2022-11-25T15:57:59.591Z,62.00
2022-11-25T16:03:05.019Z,62.15
2022-11-25T16:08:29.077Z,62.14
2022-11-25T16:13:35.792Z,62.50
2022-11-25T16:18:43.914Z,62.32
2022-11-25T16:23:51.194Z,62.53
2022-11-25T16:28:57.253Z,62.05
2022-11-25T16:34:11.048Z,62.33
2022-11-25T16:39:15.145Z,62.63
2022-11-25T16:44:21.522Z,63.42
2022-11-25T16:49:26.895Z,63.21
2022-11-25T16:54:31.767Z,63.78
2022-11-25T16:59:41.198Z,63.69
2022-11-25T17:04:46.134Z,63.21
2022-11-25T17:09:49.866Z,63.30
2022-11-25T17:14:55.680Z,63.58
2022-11-25T17:20:00.642Z,63.37
2022-11-25T17:25:04.633Z,63.62
2022-11-25T17:30:15.826Z,64.33
2022-11-25T17:35:22.149Z,63.80
2022-11-25T17:40:25.676Z,63.52
2022-11-25T17:45:29.733Z,63.79
2022-11-25T17:50:36.235Z,63.80
2022-11-25T17:55:42.006Z,63.62
2022-11-25T18:00:45.718Z,64.34
2022-11-25T18:05:50.855Z,63.61
2022-11-25T18:10:54.379Z,63.79
2022-11-25T18:15:57.730Z,64.09
2022-11-25T18:21:02.529Z,63.94
2022-11-25T18:26:07.655Z,64.64
2022-11-25T18:31:13.352Z,64.08
2022-11-25T18:36:19.300Z,64.54
2022-11-25T18:41:23.423Z,64.22
2022-11-25T18:46:26.957Z,64.44
2022-11-25T18:51:31.813Z,64.21
2022-11-25T18:56:36.205Z,64.12
2022-11-25T19:01:39.880Z,64.16
2022-11-25T19:06:44.727Z,64.07
2022-11-25T19:11:50.867Z,63.64
2022-11-25T19:16:54.974Z,64.57
2022-11-25T19:22:02.359Z,64.72
2022-11-25T19:27:06.137Z,64.24
2022-11-25T19:32:18.685Z,64.42
2022-11-25T19:37:24.206Z,63.61
2022-11-25T19:42:28.664Z,63.92
2022-11-25T19:47:32.249Z,63.29
2022-11-25T19:52:40.032Z,63.34
2022-11-25T19:57:44.515Z,63.59
2022-11-25T20:02:50.216Z,63.10
2022-11-25T20:07:55.177Z,62.99
2022-11-25T20:12:59.394Z,62.47
2022-11-25T20:18:02.818Z,63.49
2022-11-25T20:23:13.541Z,63.06
2022-11-25T20:28:18.711Z,63.76
2022-11-25T20:33:24.857Z,63.21
2022-11-25T20:38:32.752Z,63.49
2022-11-25T20:43:38.984Z,62.70
2022-11-25T20:48:42.627Z,63.08
2022-11-25T20:53:49.850Z,63.03
2022-11-25T20:58:53.285Z,63.49
2022-11-25T21:03:56.589Z,63.28
2022-11-25T21:09:02.748Z,63.10
2022-11-25T21:14:13.424Z,63.84
2022-11-25T21:19:16.789Z,64.50
2022-11-25T21:24:31.658Z,64.14
2022-11-25T21:29:34.748Z,64.07
2022-11-25T21:34:38.341Z,63.55
2022-11-25T21:39:43.712Z,63.54
2022-11-25T21:44:48.071Z,64.17
2022-11-25T21:49:52.267Z,63.55
2022-11-25T21:54:56.914Z,63.46
2022-11-25T22:00:00.435Z,64.22
2022-11-25T22:05:03.646Z,63.79
2022-11-25T22:10:10.365Z,63.68
2022-11-25T22:15:17.472Z,63.38
2022-11-25T22:20:29.604Z,63.86
2022-11-25T22:25:34.673Z,63.80
2022-11-25T22:30:37.974Z,63.89
2022-11-25T22:35:41.669Z,63.42
2022-11-25T22:40:51.693Z,63.75
2022-11-25T22:45:55.268Z,63.38
2022-11-25T22:50:58.542Z,64.32
2022-11-25T22:56:03.081Z,64.25
2022-11-25T23:01:06.677Z,64.07
2022-11-25T23:06:11.968Z,64.47
2022-11-25T23:11:21.217Z,64.10
2022-11-25T23:16:24.479Z,64.38
2022-11-25T23:21:29.433Z,64.57
2022-11-25T23:26:35.285Z,64.00
2022-11-25T23:31:40.030Z,64.23
2022-11-25T23:36:44.832Z,64.36
2022-11-25T23:41:50.429Z,64.44
2022-11-25T23:46:55.326Z,64.15
2022-11-25T23:52:07.258Z,64.03
2022-11-25T23:57:16.149Z,64.08
